Time;durP1;ratioP1;P1;durP2;ratioP2;P2;SDS_P1;SDS_P2;PMS_P1;PMS_P2;Temp;Humidity;BMP_temperature;BMP_pressure;BME280_temperature;BME280_humidity;BME280_pressure;Samples;Min_cycle;Max_cycle;Signal;HPM_P1;HPM_P2
2022/06/30 00:01:58;;;;;;;4.88;4.35;;;20.60;99.90;;;;;;6135270;23;20087;-87
2022/06/30 00:04:23;;;;;;;5.50;4.72;;;20.60;99.90;;;;;;6159972;23;20024;-87
2022/06/30 00:06:52;;;;;;;5.50;4.65;;;20.60;99.90;;;;;;6134906;23;20013;-86
2022/06/30 00:09:19;;;;;;;5.47;4.97;;;20.50;99.90;;;;;;6184320;23;20064;-87
2022/06/30 00:11:44;;;;;;;5.90;4.65;;;20.50;99.90;;;;;;6159955;23;20088;-87
2022/06/30 00:14:12;;;;;;;6.30;5.70;;;20.50;99.90;;;;;;6160343;23;20123;-87
2022/06/30 00:16:38;;;;;;;5.55;5.05;;;20.50;99.90;;;;;;6159684;23;20095;-86
2022/06/30 00:19:04;;;;;;;5.65;5.05;;;20.50;99.90;;;;;;6160162;23;20389;-87
2022/06/30 00:21:29;;;;;;;5.85;5.32;;;20.40;99.90;;;;;;6160933;23;20056;-87
2022/06/30 00:23:55;;;;;;;5.97;5.15;;;20.40;99.90;;;;;;6159734;23;20079;-87
2022/06/30 00:26:21;;;;;;;6.10;5.53;;;20.40;99.90;;;;;;6159740;23;20017;-86
2022/06/30 00:28:53;;;;;;;5.85;5.35;;;20.40;99.90;;;;;;6135173;23;20092;-88
2022/06/30 00:31:21;;;;;;;6.93;5.90;;;20.40;99.90;;;;;;6160046;23;20017;-87
2022/06/30 00:33:50;;;;;;;5.88;5.38;;;20.40;99.90;;;;;;6159718;23;20017;-87
2022/06/30 00:36:16;;;;;;;6.03;5.53;;;20.30;99.90;;;;;;6160192;23;20021;-87
2022/06/30 00:38:45;;;;;;;6.43;5.82;;;20.20;99.90;;;;;;6158713;23;20092;-88
2022/06/30 00:44:36;;;;;;;7.22;6.22;;;20.10;99.90;;;;;;6171478;23;20385;-88
2022/06/30 00:47:05;;;;;;;9.27;5.10;;;20.00;99.90;;;;;;6159079;23;20341;-88
2022/06/30 00:49:31;;;;;;;6.03;5.43;;;20.00;99.90;;;;;;6184356;23;20092;-87
2022/06/30 00:52:01;;;;;;;6.85;5.40;;;19.50;99.90;;;;;;6183278;23;20389;-88
2022/06/30 00:54:39;;;;;;;5.45;4.95;;;19.80;99.90;;;;;;6184346;23;20013;-87
2022/06/30 00:57:22;;;;;;;5.18;4.68;;;19.80;99.90;;;;;;6160811;23;20068;-86
2022/06/30 00:59:51;;;;;;;5.72;4.63;;;19.80;99.90;;;;;;6158873;23;20024;-87
2022/06/30 01:02:19;;;;;;;5.45;4.32;;;19.70;99.90;;;;;;6184820;23;20019;-87
2022/06/30 01:04:51;;;;;;;5.38;4.43;;;19.70;99.90;;;;;;6185046;23;20017;-87
2022/06/30 01:07:20;;;;;;;5.75;4.47;;;19.60;99.90;;;;;;6184887;23;20017;-87
2022/06/30 01:12:47;;;;;;;4.88;4.38;;;19.50;99.90;;;;;;6164181;23;20013;-86
2022/06/30 01:26:36;;;;;;;4.55;4.15;;;19.50;99.90;;;;;;6175368;23;20100;-87
2022/06/30 01:29:06;;;;;;;4.78;4.38;;;19.30;99.90;;;;;;6148514;23;20075;-88
2022/06/30 01:31:39;;;;;;;5.35;4.15;;;19.30;99.90;;;;;;6159450;23;20088;-87
2022/06/30 01:34:05;;;;;;;4.53;4.13;;;19.30;99.90;;;;;;6183805;23;20020;-87
2022/06/30 01:36:30;;;;;;;4.72;4.20;;;19.40;99.90;;;;;;6159826;23;20087;-87
2022/06/30 01:39:00;;;;;;;5.07;3.90;;;19.40;99.90;;;;;;6158270;23;20025;-87
2022/06/30 01:41:25;;;;;;;4.38;3.97;;;19.30;99.90;;;;;;6159251;23;20413;-87
2022/06/30 01:43:51;;;;;;;3.50;3.20;;;19.30;99.90;;;;;;6158623;23;20063;-87
2022/06/30 01:46:20;;;;;;;4.50;3.75;;;19.30;99.90;;;;;;6134238;23;20020;-87
2022/06/30 01:48:52;;;;;;;4.00;3.60;;;19.30;99.90;;;;;;6183420;23;20044;-87
2022/06/30 01:51:17;;;;;;;3.50;3.20;;;19.30;99.90;;;;;;6159503;23;20040;-86
2022/06/30 01:53:43;;;;;;;3.72;3.25;;;19.20;99.90;;;;;;6134335;23;20020;-86
2022/06/30 01:56:09;;;;;;;3.97;3.40;;;19.30;99.90;;;;;;6133663;23;20017;-86
2022/06/30 01:58:41;;;;;;;3.83;3.40;;;19.30;99.90;;;;;;6159699;23;20020;-86
2022/06/30 02:01:07;;;;;;;4.10;3.70;;;19.30;99.90;;;;;;6159511;23;20553;-86
2022/06/30 02:03:36;;;;;;;3.78;3.47;;;19.30;99.90;;;;;;6134732;23;20052;-87
2022/06/30 02:06:05;;;;;;;3.67;3.38;;;19.30;99.90;;;;;;6135334;23;20017;-86
2022/06/30 02:08:30;;;;;;;4.07;3.55;;;19.20;99.90;;;;;;6159055;23;20017;-86
2022/06/30 02:10:57;;;;;;;3.45;3.15;;;19.30;99.90;;;;;;6158593;23;20063;-87
2022/06/30 02:13:23;;;;;;;3.83;3.42;;;19.20;99.90;;;;;;6134241;23;20013;-87
2022/06/30 02:15:49;;;;;;;3.90;3.58;;;19.20;99.90;;;;;;6158355;23;20020;-87
2022/06/30 02:18:15;;;;;;;3.95;3.20;;;19.10;99.90;;;;;;6159344;23;20028;-87
2022/06/30 02:20:40;;;;;;;5.28;3.70;;;19.10;99.90;;;;;;6181920;23;20024;-86
2022/06/30 02:23:06;;;;;;;4.32;3.92;;;19.10;99.90;;;;;;6156281;23;20013;-86
2022/06/30 02:25:36;;;;;;;3.67;3.38;;;19.10;99.90;;;;;;6134440;23;20097;-86
2022/06/30 02:28:05;;;;;;;4.38;3.30;;;19.00;99.90;;;;;;6158497;23;20017;-86
2022/06/30 02:30:34;;;;;;;4.65;3.50;;;19.00;99.90;;;;;;6183621;23;20009;-86
2022/06/30 02:33:00;;;;;;;3.80;3.30;;;19.00;99.90;;;;;;6183341;23;20019;-86
2022/06/30 02:35:29;;;;;;;4.60;3.47;;;19.00;99.90;;;;;;6183100;23;20107;-86
2022/06/30 02:37:58;;;;;;;3.83;3.47;;;19.00;99.90;;;;;;6206892;23;20032;-86
2022/06/30 02:40:24;;;;;;;6.10;3.92;;;18.90;99.90;;;;;;6132999;23;20020;-85
2022/06/30 02:43:10;;;;;;;4.32;3.92;;;18.90;99.90;;;;;;6156859;23;20021;-86
2022/06/30 02:45:42;;;;;;;5.78;4.43;;;18.90;99.90;;;;;;6147345;23;20452;-85
2022/06/30 02:48:07;;;;;;;5.95;4.18;;;18.80;99.90;;;;;;6132482;23;20017;-84
2022/06/30 02:50:36;;;;;;;5.68;4.20;;;18.80;99.90;;;;;;6156930;23;20017;-85
2022/06/30 02:53:02;;;;;;;5.20;3.97;;;18.70;99.90;;;;;;6182855;23;20446;-85
2022/06/30 02:55:57;;;;;;;4.07;3.78;;;18.60;99.90;;;;;;6157516;23;20061;-85
2022/06/30 03:40:23;;;;;;;5.97;5.38;;;17.30;99.90;;;;;;6009025;23;20095;-85
2022/06/30 03:46:39;;;;;;;5.72;5.13;;;17.00;99.90;;;;;;5956284;24;20524;-85
2022/06/30 03:49:05;;;;;;;6.60;5.93;;;17.30;99.90;;;;;;6004723;23;20398;-85
2022/06/30 03:51:30;;;;;;;8.30;6.00;;;17.30;99.90;;;;;;5988876;23;20054;-85
2022/06/30 03:54:50;;;;;;;6.40;5.80;;;17.30;99.90;;;;;;5988062;23;20469;-85
2022/06/30 04:01:51;;;;;;;;;;;;;;;;;;;;;
2022/06/30 04:04:48;;;;;;;6.22;5.55;;;17.20;99.90;;;;;;6077240;23;20023;-86
2022/06/30 04:07:25;;;;;;;5.63;5.13;;;17.10;99.90;;;;;;6128204;23;20020;-85
2022/06/30 04:09:53;;;;;;;5.72;5.20;;;17.20;99.90;;;;;;6106659;23;20063;-85
2022/06/30 04:12:47;;;;;;;6.55;5.72;;;17.10;99.90;;;;;;6104754;23;20045;-85
2022/06/30 04:16:12;;;;;;;6.22;5.38;;;17.20;99.90;;;;;;6135622;23;20017;-86
2022/06/30 04:23:06;;;;;;;6.22;5.65;;;17.20;99.90;;;;;;6036360;23;20026;-85
2022/06/30 04:25:53;;;;;;;5.75;5.25;;;17.10;99.90;;;;;;6026376;23;20071;-86
2022/06/30 04:28:22;;;;;;;4.97;4.57;;;17.10;99.90;;;;;;6036058;23;20034;-86
2022/06/30 04:38:47;;;;;;;5.80;5.28;;;17.20;99.90;;;;;;6039260;23;20078;-85
2022/06/30 04:41:24;;;;;;;5.63;5.07;;;17.30;99.90;;;;;;6028394;23;20077;-86
2022/06/30 04:43:57;;;;;;;4.82;4.32;;;17.30;99.90;;;;;;6062335;23;20058;-86
2022/06/30 04:46:27;;;;;;;6.00;5.47;;;17.40;99.90;;;;;;6118934;23;20073;-85
2022/06/30 04:49:30;;;;;;;6.00;5.32;;;17.50;99.90;;;;;;6151608;23;20454;-86
2022/06/30 04:52:14;;;;;;;5.93;5.43;;;17.20;99.90;;;;;;6160237;23;20649;-86
2022/06/30 04:54:43;;;;;;;5.47;4.72;;;17.60;99.90;;;;;;6160148;23;20020;-85
2022/06/30 04:57:08;;;;;;;5.57;5.07;;;17.70;99.90;;;;;;6134790;23;20012;-85
2022/06/30 04:59:34;;;;;;;5.75;5.13;;;17.80;99.90;;;;;;6160115;23;20020;-85
2022/06/30 05:02:20;;;;;;;5.05;4.45;;;17.80;99.90;;;;;;6159147;23;20032;-86
2022/06/30 05:04:46;;;;;;;5.40;4.90;;;17.90;99.90;;;;;;6159740;23;20016;-85
2022/06/30 05:10:00;;;;;;;5.80;4.65;;;18.00;99.90;;;;;;6123902;23;20467;-86
2022/06/30 05:12:26;;;;;;;5.03;4.53;;;18.10;99.90;;;;;;6099376;23;20018;-86
2022/06/30 05:15:02;;;;;;;5.25;4.75;;;18.10;99.90;;;;;;6099862;23;20010;-86
2022/06/30 05:17:32;;;;;;;5.28;4.60;;;18.20;99.90;;;;;;6096397;23;20014;-87
2022/06/30 05:27:34;;;;;;;14.05;12.65;;;18.50;99.90;;;;;;6008664;23;20030;-87
2022/06/30 05:38:19;;;;;;;;;;;;;;;;;;;;;
2022/06/30 05:54:06;;;;;;;9.30;5.03;;;19.20;99.90;;;;;;6008035;23;20132;-87
2022/06/30 05:56:50;;;;;;;4.43;4.03;;;19.40;99.90;;;;;;6021039;23;20021;-86
2022/06/30 06:03:43;;;;;;;4.90;4.05;;;19.50;99.90;;;;;;5993312;23;20010;-87
2022/06/30 06:06:08;;;;;;;4.40;4.00;;;19.60;99.90;;;;;;6009746;23;20015;-86
2022/06/30 06:12:23;;;;;;;4.72;4.10;;;19.80;99.90;;;;;;6035557;23;20014;-86
2022/06/30 06:18:50;;;;;;;5.03;4.60;;;19.90;99.90;;;;;;6090381;23;20494;-86
2022/06/30 06:21:18;;;;;;;4.43;4.00;;;20.00;99.90;;;;;;6123171;23;20014;-87
2022/06/30 06:23:50;;;;;;;5.30;4.60;;;20.00;99.90;;;;;;6075850;23;20424;-86
2022/06/30 06:26:34;;;;;;;6.40;5.20;;;20.10;99.90;;;;;;6123234;23;20018;-85
2022/06/30 06:33:16;;;;;;;5.75;5.25;;;20.10;99.90;;;;;;6121112;23;20451;-86
2022/06/30 06:39:49;;;;;;;5.65;4.57;;;20.50;99.90;;;;;;6093921;23;20025;-86
2022/06/30 06:42:18;;;;;;;5.43;4.65;;;20.60;99.90;;;;;;5961826;23;20027;-86
2022/06/30 06:44:52;;;;;;;6.38;4.75;;;20.70;99.90;;;;;;6030826;23;20078;-84
2022/06/30 06:47:18;;;;;;;;;;;21.00;99.90;;;;;;6071032;23;20054;-86
2022/06/30 06:49:44;;;;;;;7.40;6.57;;;21.10;99.90;;;;;;6069617;23;19924;-86
2022/06/30 06:52:10;;;;;;;6.78;5.47;;;21.30;99.90;;;;;;6052541;23;20025;-87
2022/06/30 06:54:35;;;;;;;6.15;5.55;;;21.40;99.90;;;;;;6105841;23;20016;-86
2022/06/30 06:57:01;;;;;;;6.47;5.57;;;21.50;99.90;;;;;;6129602;23;20445;-85
2022/06/30 06:59:27;;;;;;;7.63;6.53;;;21.60;99.90;;;;;;6128921;23;20021;-87
2022/06/30 07:01:53;;;;;;;7.70;6.60;;;21.70;99.90;;;;;;6080993;23;20025;-86
2022/06/30 07:04:19;;;;;;;6.85;5.30;;;21.60;99.90;;;;;;6129156;23;20013;-86
2022/06/30 07:06:47;;;;;;;6.25;5.65;;;21.80;99.90;;;;;;6128562;23;20017;-86
2022/06/30 07:09:13;;;;;;;5.78;5.28;;;21.90;99.90;;;;;;6081479;23;20009;-85
2022/06/30 07:11:39;;;;;;;21.20;7.22;;;22.00;99.90;;;;;;6055426;23;20089;-86
2022/06/30 07:14:04;;;;;;;6.90;5.55;;;22.00;99.90;;;;;;6102653;23;20372;-87
2022/06/30 07:16:31;;;;;;;7.35;5.18;;;22.10;99.90;;;;;;6101513;23;20064;-85
2022/06/30 07:18:56;;;;;;;4.78;4.28;;;22.20;99.90;;;;;;6105668;23;20024;-87
2022/06/30 07:21:23;;;;;;;6.65;5.00;;;22.40;99.90;;;;;;6097148;23;20018;-86
2022/06/30 07:23:49;;;;;;;5.93;4.20;;;22.40;99.90;;;;;;6096153;23;20096;-86
2022/06/30 07:26:15;;;;;;;5.75;4.55;;;22.50;99.90;;;;;;6078783;23;20069;-85
2022/06/30 07:28:46;;;;;;;5.85;4.88;;;22.50;99.90;;;;;;6082209;23;20024;-86
2022/06/30 07:31:14;;;;;;;5.68;4.53;;;22.60;99.90;;;;;;6102973;23;20013;-87
2022/06/30 07:33:42;;;;;;;5.13;4.60;;;22.60;99.90;;;;;;6079616;23;20017;-89
2022/06/30 07:36:16;;;;;;;5.20;3.83;;;22.60;99.90;;;;;;6083037;23;20014;-88
2022/06/30 07:38:51;;;;;;;4.55;3.85;;;22.60;99.90;;;;;;6103187;23;20021;-90
2022/06/30 07:41:24;;;;;;;6.97;4.70;;;22.60;99.90;;;;;;6128154;23;20024;-87
2022/06/30 07:43:53;;;;;;;5.03;4.55;;;22.90;99.90;;;;;;6105519;23;20033;-88
2022/06/30 07:46:19;;;;;;;6.95;4.57;;;22.90;99.90;;;;;;6112294;23;20068;-86
2022/06/30 07:48:46;;;;;;;4.25;3.80;;;23.00;99.90;;;;;;6107763;23;20025;-87
2022/06/30 07:51:12;;;;;;;5.63;4.72;;;23.10;99.90;;;;;;6156982;23;20051;-87
2022/06/30 07:53:38;;;;;;;5.75;4.80;;;23.20;99.90;;;;;;6158420;23;20013;-86
2022/06/30 07:56:04;;;;;;;6.13;4.60;;;23.30;99.90;;;;;;6183686;23;20019;-86
2022/06/30 07:58:30;;;;;;;4.85;4.38;;;23.40;99.90;;;;;;6183035;23;20393;-87
2022/06/30 08:00:56;;;;;;;4.93;4.43;;;23.50;99.90;;;;;;6158002;23;20100;-87
2022/06/30 08:03:22;;;;;;;7.28;4.60;;;23.60;99.90;;;;;;6159807;23;20017;-87
2022/06/30 08:05:49;;;;;;;6.45;4.90;;;23.70;99.90;;;;;;6159743;23;20024;-87
2022/06/30 08:08:15;;;;;;;6.07;4.90;;;23.80;99.90;;;;;;6157630;23;20111;-87
2022/06/30 08:10:44;;;;;;;5.05;4.10;;;23.90;99.90;;;;;;6159815;23;20021;-87
2022/06/30 08:13:13;;;;;;;7.82;5.35;;;23.90;99.90;;;;;;6160365;23;20389;-87
2022/06/30 08:15:42;;;;;;;5.57;5.05;;;23.90;99.90;;;;;;6135208;23;20067;-89
2022/06/30 08:18:09;;;;;;;6.57;5.97;;;23.60;99.90;;;;;;6135579;23;20012;-88
2022/06/30 08:24:50;;;;;;;6.22;5.63;;;23.90;99.90;;;;;;6183478;23;20020;-89
2022/06/30 08:28:08;;;;;;;5.88;5.28;;;24.00;99.90;;;;;;6157830;23;20045;-89
2022/06/30 08:30:51;;;;;;;5.78;5.20;;;24.20;99.90;;;;;;6208875;23;20024;-87
2022/06/30 08:33:17;;;;;;;5.68;5.18;;;24.20;99.90;;;;;;6159952;23;20009;-88
2022/06/30 08:35:43;;;;;;;5.72;5.13;;;24.30;99.90;;;;;;6133971;23;20015;-88
2022/06/30 08:38:09;;;;;;;6.10;5.50;;;24.20;99.90;;;;;;6159227;23;20413;-88
2022/06/30 08:43:24;;;;;;;5.78;5.28;;;24.50;99.90;;;;;;6160905;23;20020;-87
2022/06/30 08:46:02;;;;;;;7.35;6.20;;;24.50;99.90;;;;;;6183280;23;20480;-86
2022/06/30 08:48:49;;;;;;;5.78;5.13;;;24.60;99.90;;;;;;6157366;23;20138;-87
2022/06/30 08:51:23;;;;;;;7.22;5.60;;;24.80;99.90;;;;;;6150785;23;20020;-86
2022/06/30 08:54:03;;;;;;;6.30;5.68;;;24.80;99.90;;;;;;6182091;23;20009;-88
2022/06/30 08:56:46;;;;;;;6.80;5.82;;;25.10;99.90;;;;;;6183360;23;20092;-87
2022/06/30 08:59:20;;;;;;;6.43;5.88;;;25.00;99.90;;;;;;6209295;23;20024;-88
2022/06/30 09:01:55;;;;;;;6.45;5.80;;;25.00;99.90;;;;;;6207142;23;20017;-88
2022/06/30 09:04:26;;;;;;;6.80;5.78;;;25.10;99.90;;;;;;6159714;23;20017;-88
2022/06/30 09:06:55;;;;;;;6.28;5.68;;;25.30;99.90;;;;;;6135912;23;20458;-85
2022/06/30 09:09:47;;;;;;;6.45;5.90;;;25.50;99.90;;;;;;6163526;23;20041;-87
2022/06/30 09:12:21;;;;;;;7.68;6.70;;;25.70;99.90;;;;;;6160483;23;20020;-87
2022/06/30 09:15:24;;;;;;;6.38;5.80;;;26.00;99.90;;;;;;6184491;23;20009;-88
2022/06/30 09:17:50;;;;;;;6.55;5.95;;;26.40;99.90;;;;;;6159744;23;20035;-87
2022/06/30 09:20:16;;;;;;;5.72;5.22;;;26.60;99.90;;;;;;6159372;23;20048;-87
2022/06/30 09:22:42;;;;;;;6.55;5.85;;;26.80;99.90;;;;;;6159502;23;20024;-88
2022/06/30 09:25:16;;;;;;;6.70;6.00;;;26.20;99.90;;;;;;6159496;23;20013;-86
2022/06/30 09:27:44;;;;;;;6.70;6.10;;;26.30;99.90;;;;;;6159650;23;20021;-86
2022/06/30 09:30:24;;;;;;;7.70;5.80;;;26.40;99.90;;;;;;6159399;23;20240;-87
2022/06/30 09:33:09;;;;;;;5.97;5.47;;;26.90;99.90;;;;;;6159308;23;20009;-87
2022/06/30 09:35:38;;;;;;;6.50;5.95;;;27.00;99.90;;;;;;6184255;23;20432;-87
2022/06/30 09:38:25;;;;;;;6.80;6.20;;;27.00;99.90;;;;;;6135797;23;20013;-87
2022/06/30 09:41:05;;;;;;;6.28;5.68;;;27.60;99.90;;;;;;6159115;23;20017;-88
2022/06/30 09:43:37;;;;;;;7.30;6.00;;;27.80;99.90;;;;;;6159148;23;20112;-87
2022/06/30 09:46:07;;;;;;;6.25;5.65;;;27.80;99.90;;;;;;6184452;23;20017;-88
2022/06/30 09:48:41;;;;;;;7.70;5.35;;;27.80;99.90;;;;;;6159713;23;20013;-87
2022/06/30 09:51:14;;;;;;;6.47;5.88;;;28.10;99.90;;;;;;6184966;23;20013;-88
2022/06/30 09:53:40;;;;;;;6.80;6.20;;;28.10;99.90;;;;;;6158588;23;20013;-87
2022/06/30 09:56:16;;;;;;;6.57;5.97;;;27.60;99.90;;;;;;6134277;23;20067;-87
2022/06/30 09:58:47;;;;;;;7.65;5.93;;;28.10;99.90;;;;;;6178351;23;20385;-88
2022/06/30 10:01:16;;;;;;;6.80;6.20;;;28.20;99.90;;;;;;6160944;23;20023;-87
2022/06/30 10:03:59;;;;;;;7.28;6.20;;;28.20;99.90;;;;;;6183660;23;20508;-87
2022/06/30 10:06:25;;;;;;;7.70;7.03;;;28.10;99.90;;;;;;6183763;23;20491;-88
2022/06/30 10:09:05;;;;;;;8.48;7.63;;;28.20;99.90;;;;;;6183841;23;20023;-88
2022/06/30 10:11:55;;;;;;;7.93;7.22;;;28.00;99.90;;;;;;6159820;23;20438;-88
2022/06/30 10:14:29;;;;;;;8.63;7.53;;;28.80;99.90;;;;;;6213754;23;20013;-88
2022/06/30 10:17:12;;;;;;;8.45;7.53;;;28.60;99.90;;;;;;6184044;23;20044;-88
2022/06/30 10:20:01;;;;;;;7.82;6.93;;;28.30;99.90;;;;;;6183978;23;20009;-87
2022/06/30 10:22:31;;;;;;;6.93;6.32;;;28.90;99.90;;;;;;6183788;23;20013;-88
2022/06/30 10:25:00;;;;;;;7.43;6.60;;;28.70;99.90;;;;;;6159268;23;20010;-87
2022/06/30 10:27:27;;;;;;;7.60;6.90;;;29.10;99.90;;;;;;6158938;23;20346;-87
2022/06/30 10:30:19;;;;;;;8.27;7.45;;;29.00;99.90;;;;;;6183206;23;20371;-88
2022/06/30 10:33:10;;;;;;;6.93;6.22;;;29.40;99.90;;;;;;6183036;23;20016;-87
2022/06/30 10:39:17;;;;;;;7.72;6.93;;;29.10;99.90;;;;;;6182928;23;20072;-89
2022/06/30 10:46:08;;;;;;;6.78;6.18;;;29.20;99.90;;;;;;6123037;23;20367;-89
2022/06/30 10:49:24;;;;;;;8.20;6.78;;;29.50;99.90;;;;;;6097846;23;20123;-89
2022/06/30 10:51:57;;;;;;;7.38;6.78;;;29.90;99.90;;;;;;6098954;23;20013;-90
2022/06/30 10:58:30;;;;;;;6.85;6.35;;;30.30;99.90;;;;;;6007702;23;20473;-89
2022/06/30 11:01:12;;;;;;;7.93;6.97;;;31.10;99.90;;;;;;6002774;23;20038;-88
2022/06/30 11:07:24;;;;;;;7.53;6.93;;;30.00;99.90;;;;;;6185301;23;20055;-89
2022/06/30 11:09:59;;;;;;;9.57;7.40;;;29.70;99.90;;;;;;6183361;23;20013;-90
2022/06/30 11:16:14;;;;;;;8.30;7.60;;;30.20;99.90;;;;;;6184860;23;20345;-88
2022/06/30 11:18:39;;;;;;;7.75;7.05;;;29.30;99.90;;;;;;6182652;23;20076;-89
2022/06/30 11:21:05;;;;;;;7.72;7.03;;;29.10;99.90;;;;;;6158342;23;20013;-88
2022/06/30 11:23:47;;;;;;;8.25;7.15;;;28.70;99.90;;;;;;6158515;23;20061;-88
2022/06/30 11:29:12;;;;;;;6.90;6.38;;;28.10;99.90;;;;;;6182154;23;20659;-88
2022/06/30 11:31:41;;;;;;;7.85;7.10;;;27.80;99.90;;;;;;6157178;23;20514;-87
2022/06/30 11:37:42;;;;;;;7.60;6.90;;;27.90;99.90;;;;;;6185011;23;20020;-88
2022/06/30 11:40:12;;;;;;;7.13;6.53;;;27.50;99.90;;;;;;6158533;23;20080;-87
2022/06/30 11:42:39;;;;;;;8.10;7.25;;;27.40;99.90;;;;;;6183071;23;20087;-88
2022/06/30 11:45:19;;;;;;;7.07;6.50;;;27.40;99.90;;;;;;6185945;23;20013;-88
2022/06/30 11:48:03;;;;;;;7.78;7.07;;;27.30;99.90;;;;;;6209384;23;20096;-88
2022/06/30 11:50:32;;;;;;;7.72;7.03;;;27.20;99.90;;;;;;6185490;23;20017;-88
2022/06/30 11:53:00;;;;;;;7.03;6.43;;;27.10;99.90;;;;;;6136061;23;20048;-89
2022/06/30 11:55:55;;;;;;;7.47;6.85;;;27.20;99.90;;;;;;6159848;23;20094;-89
2022/06/30 12:02:18;;;;;;;8.00;7.25;;;26.90;99.90;;;;;;6155421;23;20064;-90
2022/06/30 12:05:00;;;;;;;6.43;5.82;;;27.30;99.90;;;;;;6107462;23;20073;-90
2022/06/30 12:07:33;;;;;;;6.78;6.18;;;26.70;99.90;;;;;;6107215;23;20577;-89
2022/06/30 12:10:08;;;;;;;8.13;6.53;;;25.90;99.90;;;;;;6105570;23;20014;-88
2022/06/30 12:12:36;;;;;;;6.35;5.85;;;25.50;99.90;;;;;;6104955;23;20020;-89
2022/06/30 12:15:17;;;;;;;;;;;;;;;;;;;;;
2022/06/30 12:17:54;;;;;;;8.15;6.70;;;25.50;99.90;;;;;;6108650;23;20073;-90
2022/06/30 12:46:47;;;;;;;7.97;7.28;;;26.80;99.90;;;;;;6154840;23;20501;-92
2022/06/30 13:06:30;;;;;;;6.10;5.60;;;27.10;99.90;;;;;;6157908;23;20063;-90
2022/06/30 13:09:29;;;;;;;6.70;6.03;;;27.70;99.90;;;;;;6129459;23;20020;-90
2022/06/30 13:16:02;;;;;;;7.70;7.00;;;28.10;99.90;;;;;;6096135;23;20372;-90
2022/06/30 13:19:09;;;;;;;7.85;7.15;;;27.40;99.90;;;;;;6048389;23;20081;-94
2022/06/30 13:21:54;;;;;;;7.53;6.80;;;27.30;99.90;;;;;;5986240;23;20680;-91
2022/06/30 13:24:29;;;;;;;7.22;6.63;;;27.60;99.90;;;;;;5989221;23;20405;-91
2022/06/30 13:27:06;;;;;;;7.07;6.45;;;27.40;99.90;;;;;;6146787;23;20033;-93
2022/06/30 13:29:41;;;;;;;7.60;6.90;;;26.70;99.90;;;;;;6124160;23;20020;-92
2022/06/30 13:32:19;;;;;;;8.63;7.35;;;26.70;99.90;;;;;;6134904;23;20020;-91
2022/06/30 13:35:49;;;;;;;9.88;8.98;;;26.50;99.90;;;;;;6160124;23;20016;-92
2022/06/30 13:38:18;;;;;;;12.57;11.38;;;26.40;99.90;;;;;;6136821;23;20342;-92
2022/06/30 13:44:24;;;;;;;13.57;12.38;;;26.80;99.90;;;;;;6063077;23;20021;-91
2022/06/30 13:46:53;;;;;;;13.73;12.52;;;26.80;99.90;;;;;;6099947;23;20028;-89
2022/06/30 13:49:24;;;;;;;13.50;12.18;;;26.80;99.90;;;;;;6100248;23;20014;-91
2022/06/30 13:52:10;;;;;;;13.35;12.15;;;26.90;99.90;;;;;;6075676;23;20049;-90
2022/06/30 13:54:42;;;;;;;16.58;14.93;;;26.90;99.90;;;;;;6097299;23;20014;-89
2022/06/30 13:57:17;;;;;;;15.63;14.18;;;26.80;99.90;;;;;;6105216;23;20022;-89
2022/06/30 14:00:11;;;;;;;15.85;14.27;;;26.60;99.90;;;;;;6082241;23;20401;-90
2022/06/30 14:02:37;;;;;;;15.80;14.27;;;26.70;99.90;;;;;;6102980;23;20403;-89
2022/06/30 14:05:07;;;;;;;16.10;14.70;;;26.40;99.90;;;;;;6118147;23;21054;-91
2022/06/30 14:07:37;;;;;;;15.88;14.43;;;26.40;99.90;;;;;;6158155;23;20020;-91
2022/06/30 14:10:31;;;;;;;16.13;14.73;;;26.50;99.90;;;;;;6156845;23;20465;-90
2022/06/30 14:13:30;;;;;;;16.55;14.85;;;26.20;99.90;;;;;;6184753;23;20855;-90
2022/06/30 14:16:06;;;;;;;16.25;14.90;;;26.40;99.90;;;;;;6149358;23;20013;-91
2022/06/30 14:18:38;;;;;;;17.40;15.75;;;26.60;99.90;;;;;;6075282;23;20018;-92
2022/06/30 14:21:45;;;;;;;18.08;16.42;;;26.70;99.90;;;;;;6075800;23;20017;-90
2022/06/30 14:38:39;;;;;;;;;;;;;;;;;;;;;
2022/06/30 14:45:40;;;;;;;16.23;14.65;;;25.70;99.90;;;;;;5857716;24;20029;-89
2022/06/30 14:48:32;;;;;;;17.13;15.55;;;25.40;99.90;;;;;;5896414;24;20459;-90
2022/06/30 14:54:59;;;;;;;18.60;16.63;;;25.50;99.90;;;;;;5980185;23;20553;-89
2022/06/30 15:00:44;;;;;;;18.02;16.45;;;25.90;99.90;;;;;;5929984;24;20072;-90
2022/06/30 15:10:56;;;;;;;16.38;15.00;;;25.30;99.90;;;;;;5953590;24;20566;-90
2022/06/30 15:14:02;;;;;;;17.33;15.73;;;25.60;99.90;;;;;;5906355;24;20073;-92
2022/06/30 15:17:43;;;;;;;18.40;15.85;;;25.00;99.90;;;;;;5817251;24;20052;-90
2022/06/30 15:28:03;;;;;;;17.40;15.77;;;25.10;99.90;;;;;;5845625;24;20054;-91
2022/06/30 15:34:32;;;;;;;17.45;15.73;;;25.30;99.90;;;;;;5952851;24;20035;-89
2022/06/30 15:48:50;;;;;;;15.85;14.25;;;25.20;99.90;;;;;;5917941;24;20363;-89
2022/06/30 15:51:16;;;;;;;16.52;14.82;;;25.20;99.90;;;;;;5870319;24;20402;-90
2022/06/30 15:56:48;;;;;;;15.18;13.77;;;25.10;99.90;;;;;;5993614;23;20043;-92
2022/06/30 15:59:17;;;;;;;17.20;15.35;;;25.10;99.90;;;;;;5964006;23;20020;-89
2022/06/30 16:01:51;;;;;;;18.10;16.40;;;24.90;99.90;;;;;;6019147;23;20018;-91
2022/06/30 16:04:22;;;;;;;16.55;15.00;;;25.10;99.90;;;;;;6080490;23;20038;-91
2022/06/30 16:06:51;;;;;;;17.90;16.20;;;25.00;99.90;;;;;;6103049;23;20081;-90
2022/06/30 16:09:20;;;;;;;17.02;15.32;;;24.90;99.90;;;;;;6098465;23;20026;-89
2022/06/30 16:12:01;;;;;;;17.52;15.82;;;25.10;99.90;;;;;;6077246;23;20052;-91
2022/06/30 16:19:04;;;;;;;20.70;18.48;;;25.00;99.90;;;;;;6122318;23;20022;-90
2022/06/30 16:22:32;;;;;;;18.08;16.38;;;24.50;99.90;;;;;;5996262;23;20022;-90
2022/06/30 16:25:52;;;;;;;18.35;16.40;;;24.90;99.90;;;;;;5883372;24;20017;-91
2022/06/30 16:28:30;;;;;;;18.63;16.85;;;24.70;99.90;;;;;;5887842;24;20425;-91
2022/06/30 16:31:45;;;;;;;21.58;18.98;;;24.20;99.90;;;;;;5904640;24;20024;-91
2022/06/30 16:34:22;;;;;;;20.67;18.50;;;24.10;99.90;;;;;;5884703;24;20014;-90
2022/06/30 16:37:08;;;;;;;18.48;16.65;;;24.00;99.90;;;;;;5968891;23;20350;-90
2022/06/30 16:40:29;;;;;;;19.02;17.10;;;23.90;99.90;;;;;;5978014;23;20330;-92
2022/06/30 16:42:58;;;;;;;18.83;16.98;;;23.70;99.90;;;;;;5948029;24;20016;-90
2022/06/30 16:50:21;;;;;;;;;;;;;;;;;;;;;
2022/06/30 18:02:06;;;;;;;22.75;20.40;;;22.00;99.90;;;;;;6247479;22;20295;-92
2022/06/30 18:05:17;;;;;;;21.55;19.42;;;22.00;99.90;;;;;;6227512;23;20071;-93
2022/06/30 18:11:22;;;;;;;23.00;20.73;;;22.10;99.90;;;;;;6232997;23;20028;-93
2022/06/30 18:13:50;;;;;;;22.70;20.33;;;22.00;99.90;;;;;;6207158;23;20058;-93
2022/06/30 18:16:18;;;;;;;22.13;19.85;;;21.90;99.90;;;;;;6211633;23;20209;-93
2022/06/30 18:18:57;;;;;;;23.33;20.92;;;22.00;99.90;;;;;;6205455;23;20012;-95
2022/06/30 18:21:42;;;;;;;24.35;20.63;;;21.90;99.90;;;;;;6183910;23;20012;-95
2022/06/30 18:24:54;;;;;;;23.88;21.27;;;21.90;99.90;;;;;;6207735;23;20067;-93
2022/06/30 18:27:36;;;;;;;23.97;21.43;;;21.80;99.90;;;;;;6165275;23;20020;-93
2022/06/30 18:30:13;;;;;;;23.92;21.42;;;21.60;99.90;;;;;;6186892;23;20012;-92
2022/06/30 18:32:40;;;;;;;22.83;20.42;;;21.50;99.90;;;;;;6185595;23;20032;-92
2022/06/30 18:39:05;;;;;;;22.23;20.02;;;21.40;99.90;;;;;;6162761;23;20018;-92
2022/06/30 18:41:39;;;;;;;;;;;21.40;99.90;;;;;;6092165;23;20045;-93
2022/06/30 18:44:12;;;;;;;28.67;21.17;;;21.30;99.90;;;;;;6117175;23;19952;-93
2022/06/30 18:46:44;;;;;;;24.20;21.80;;;21.10;99.90;;;;;;6085734;23;20020;-94
2022/06/30 18:49:16;;;;;;;21.23;18.95;;;20.90;99.90;;;;;;6062713;23;20020;-93
2022/06/30 18:51:42;;;;;;;22.23;19.85;;;20.80;99.90;;;;;;6064358;23;20020;-94
2022/06/30 18:54:09;;;;;;;22.48;20.23;;;20.50;99.90;;;;;;6089470;23;20036;-96
2022/06/30 18:56:53;;;;;;;22.27;19.98;;;20.70;99.90;;;;;;6120624;23;20044;-92
2022/06/30 18:59:33;;;;;;;19.80;17.85;;;20.60;99.90;;;;;;6122483;23;20491;-95
2022/06/30 19:02:08;;;;;;;22.55;20.17;;;20.50;99.90;;;;;;6163442;23;20021;-94
2022/06/30 19:04:40;;;;;;;23.33;20.85;;;20.30;99.90;;;;;;6144765;23;20069;-94
2022/06/30 19:07:09;;;;;;;20.65;18.65;;;20.50;99.90;;;;;;6095995;23;20021;-92
2022/06/30 19:09:36;;;;;;;22.60;19.10;;;20.10;99.90;;;;;;6117583;23;20048;-95
2022/06/30 19:12:18;;;;;;;20.83;18.42;;;20.00;99.90;;;;;;6116871;23;20009;-92
2022/06/30 19:14:44;;;;;;;17.70;15.80;;;19.90;99.90;;;;;;6143106;23;20013;-94
2022/06/30 19:17:13;;;;;;;19.83;15.90;;;19.80;99.90;;;;;;6115824;23;20009;-93
2022/06/30 19:20:07;;;;;;;17.63;15.75;;;19.80;99.90;;;;;;6137053;23;20013;-94
2022/06/30 19:22:33;;;;;;;19.80;16.02;;;19.70;99.90;;;;;;6144563;23;20044;-91
2022/06/30 19:24:59;;;;;;;16.08;13.88;;;19.60;99.90;;;;;;6123653;23;20013;-94
2022/06/30 19:27:30;;;;;;;16.38;14.45;;;19.70;99.90;;;;;;6122938;23;20013;-96
2022/06/30 19:29:57;;;;;;;16.95;13.43;;;19.00;99.90;;;;;;6119495;23;20013;-91
2022/06/30 19:32:26;;;;;;;12.85;11.55;;;19.50;99.90;;;;;;6109983;23;20469;-92